Flight Track Log - Related Links

Times and Time Zones

All times are in EDT time to prevent confusion due to time zone crossing. See the SWA440 flight status page for this flight to view local times or setup timezone preferences in your user account.

Time Position Orientation Groundspeed Altitude Reporting Facility
EDT Latitude Longitude Course Direction KTS MPH feet Rate Location/Type
Sun 09:16:49 AM 41.7833 -87.7333 98° East 138 159 2,500  Level Chicago TRACON
Sun 09:17:49 AM 41.7833 -87.6500 90° East 214 246 3,100 1,250 Climbing Chicago TRACON
Sun 09:18:49 AM 41.7833 -87.5667 90° East 261 300 5,000 1,403 Climbing Chicago TRACON
Sun 09:19:06 AM 41.7875 -87.5550 64° Northeast 234 269 4,900  Descending Chicago Center
Sun 09:20:07 AM 41.7825 -87.4583 94° East 253 291 5,000 2,000 Climbing Chicago Center
Sun 09:21:09 AM 41.7764 -87.3383 94° East 268 308 9,000 4,341 Climbing Chicago Center
Sun 09:22:00 AM 41.7580 -87.1215 98° East  Level FlightAware Approximate
Sun 09:22:10 AM 41.7692 -87.2231 95° East 304 350 13,900  Level Chicago Center
Sun 09:23:11 AM 41.7633 -87.1017 94° East 324 373 18,100 3,805 Climbing Chicago Center
Sun 09:24:13 AM 41.7622 -86.9686 91° East 353 406 21,700 3,366 Climbing Chicago Center
Sun 09:25:14 AM 41.7639 -86.8300 89° East 371 427 25,000 3,220 Climbing Chicago Center
Sun 09:26:16 AM 41.7653 -86.6692 89° East 388 447 28,300 2,585 Climbing Chicago Center
Sun 09:27:17 AM 41.7667 -86.5078 89° East 432 497 30,300 2,244 Climbing Chicago Center
Sun 09:28:19 AM 41.7678 -86.3433 89° East 442 509 32,900 1,317 Climbing Chicago Center
Sun 09:29:20 AM 41.7833 -86.1814 83° East 441 507 33,000 49 Climbing Chicago Center
Sun 09:30:22 AM 41.8008 -86.0225 82° East 433 498 33,000  Level Chicago Center
Sun 09:31:23 AM 41.8181 -85.8622 82° East 434 499 33,000  Level Chicago Center
Sun 09:32:25 AM 41.8347 -85.7008 82° East 435 501 33,000  Level Chicago Center
Sun 09:33:26 AM 41.8528 -85.5386 81° East 436 502 33,000  Level Chicago Center
Sun 09:34:28 AM 41.8689 -85.3756 82° East 435 501 33,000  Level Chicago Center
Sun 09:35:40 AM 41.8908 -85.1778 81° East 436 502 33,000  Level Cleveland Center
Sun 09:36:40 AM 41.9078 -85.0144 82° East 436 502 33,000  Level Cleveland Center
Sun 09:37:40 AM 41.9222 -84.8533 83° East 441 507 33,000  Level Cleveland Center
Sun 09:38:40 AM 41.9386 -84.6897 82° East 441 507 33,000  Level Cleveland Center
Sun 09:39:40 AM 41.9525 -84.5314 83° East 441 507 33,000  Level Cleveland Center
Sun 09:40:40 AM 41.9703 -84.3706 81° East 441 507 33,000  Level Cleveland Center
Sun 09:41:40 AM 41.9825 -84.1897 85° East 441 507 33,000  Level Cleveland Center
Sun 09:42:40 AM 41.9958 -84.0283 84° East 441 507 33,000  Level Cleveland Center
Sun 09:43:40 AM 42.0108 -83.8669 83° East 441 507 33,000 -500 Level Cleveland Center
Sun 09:44:40 AM 42.0239 -83.7056 84° East 441 507 32,000 -1,850 Descending Cleveland Center
Sun 09:45:40 AM 42.0386 -83.5411 83° East 441 507 29,300 -2,500 Descending Cleveland Center
Sun 09:46:40 AM 42.0406 -83.3764 89° East 441 507 27,000 -2,250 Descending Cleveland Center
Sun 09:47:40 AM 42.0233 -83.2219 98° East 429 494 24,800 -2,100 Descending Cleveland Center
Sun 09:48:40 AM 42.0081 -83.0731 98° East 412 474 22,800 -1,900 Descending Cleveland Center
Sun 09:49:40 AM 41.9942 -82.9328 98° East 394 453 21,000 -1,800 Descending Cleveland Center
Sun 09:50:40 AM 41.9822 -82.8067 97° East 381 438 19,200 -1,550 Descending Cleveland Center
Sun 09:51:40 AM 41.9722 -82.6778 96° East 365 420 17,900 -1,900 Descending Cleveland Center
Sun 09:52:40 AM 41.9556 -82.5489 100° East 352 405 15,400 -1,850 Descending Cleveland Center
Sun 09:53:40 AM 41.8883 -82.4631 136° Southeast 313 360 14,200 -1,200 Descending Cleveland Center
Sun 09:53:55 AM 41.8636 -82.4483 156° South 325 374 13,900 -1,000 Descending Cleveland Center
Sun 09:54:40 AM 41.8036 -82.4161 158° South 309 356 13,200 -1,086 Descending Cleveland Center
Sun 09:55:40 AM 41.7253 -82.3636 153° Southeast 314 361 12,000 -1,407 Descending Cleveland Center
Sun 09:56:01 AM 41.6900 -82.3433 157° South 310 357 11,300 -1,700 Descending Cleveland Center
Sun 09:56:40 AM 41.6508 -82.3144 151° Southeast 309 356 10,300 -1,309 Descending Cleveland Center
Sun 09:56:56 AM 41.6219 -82.2997 159° South 297 342 10,100 -900 Descending Cleveland Center
Sun 09:57:40 AM 41.5786 -82.2708 153° Southeast 296 341 9,400 -1,212 Descending Cleveland Center
Sun 09:58:40 AM 41.5125 -82.2303 155° Southeast 277 319 8,000 -1,481 Descending Cleveland Center
Sun 09:58:57 AM 41.4856 -82.2131 154° Southeast 265 305 7,500 -1,400 Descending Cleveland Center
Sun 09:59:40 AM 41.4400 -82.1842 155° Southeast 270 311 6,600 -1,377 Descending Cleveland Center
Sun 09:59:58 AM 41.4194 -82.1725 157° South 256 295 6,100 -1,000 Descending Cleveland Center
Sun 10:00:40 AM 41.3761 -82.1467 156° South 258 297 5,600 -1,545 Descending Cleveland Center
Sun 10:01:04 AM 41.3511 -82.1294 153° Southeast 237 273 4,400 -1,899 Descending Cleveland Center
Sun 10:01:59 AM 41.3144 -82.0733 131° Southeast 245 282 3,100 -828 Descending Cleveland Center
Sun 10:03:00 AM 41.3281 -81.9961 77° East 210 242 2,800 -397 Descending Cleveland Center
Sun 10:04:00 AM 41.3536 -81.9414 58° Northeast 153 176 2,300 -645 Descending Cleveland Center
Sun 10:05:01 AM 41.3769 -81.9003 53° Northeast 125 144 1,500 -787 Descending Cleveland Center
Sun 10:07:00 AM 41.4000 -81.8500 50° Northeast  Level FlightAware Approximate

Login

Don't have an account? Register now (free) for customized features, flight alerts, and more!